sensor_id;sensor_type;location;lat;lon;timestamp;P1;durP1;ratioP1;P2;durP2;ratioP2
61291;SDS011;47165;42.664;23.368;2022-08-19T00:00:24;5.00;;;3.92;;
61291;SDS011;47165;42.664;23.368;2022-08-19T00:02:49;5.22;;;3.80;;
61291;SDS011;47165;42.664;23.368;2022-08-19T00:05:15;6.22;;;4.22;;
61291;SDS011;47165;42.664;23.368;2022-08-19T00:07:42;6.85;;;3.47;;
61291;SDS011;47165;42.664;23.368;2022-08-19T00:10:08;8.02;;;4.55;;
61291;SDS011;47165;42.664;23.368;2022-08-19T00:12:35;8.52;;;4.60;;
61291;SDS011;47165;42.664;23.368;2022-08-19T00:15:02;9.57;;;4.82;;
61291;SDS011;47165;42.664;23.368;2022-08-19T00:17:30;5.55;;;4.13;;
61291;SDS011;47165;42.664;23.368;2022-08-19T00:19:55;6.20;;;4.07;;
61291;SDS011;47165;42.664;23.368;2022-08-19T00:22:20;4.32;;;3.75;;
61291;SDS011;47165;42.664;23.368;2022-08-19T00:24:46;5.38;;;4.13;;
61291;SDS011;47165;42.664;23.368;2022-08-19T00:27:12;7.72;;;4.63;;
61291;SDS011;47165;42.664;23.368;2022-08-19T00:29:38;12.23;;;6.05;;
61291;SDS011;47165;42.664;23.368;2022-08-19T00:32:04;5.25;;;4.32;;
61291;SDS011;47165;42.664;23.368;2022-08-19T00:34:30;7.90;;;3.83;;
61291;SDS011;47165;42.664;23.368;2022-08-19T00:36:56;5.47;;;4.28;;
61291;SDS011;47165;42.664;23.368;2022-08-19T00:39:21;6.43;;;4.80;;
61291;SDS011;47165;42.664;23.368;2022-08-19T00:41:48;8.43;;;4.25;;
61291;SDS011;47165;42.664;23.368;2022-08-19T00:46:42;7.50;;;4.40;;
61291;SDS011;47165;42.664;23.368;2022-08-19T00:49:14;5.30;;;4.40;;
61291;SDS011;47165;42.664;23.368;2022-08-19T00:51:40;6.32;;;4.60;;
61291;SDS011;47165;42.664;23.368;2022-08-19T00:54:09;7.05;;;5.30;;
61291;SDS011;47165;42.664;23.368;2022-08-19T00:56:35;6.93;;;4.50;;
61291;SDS011;47165;42.664;23.368;2022-08-19T00:59:02;6.68;;;4.53;;
61291;SDS011;47165;42.664;23.368;2022-08-19T01:01:37;4.97;;;3.60;;
61291;SDS011;47165;42.664;23.368;2022-08-19T01:04:05;5.72;;;4.75;;
61291;SDS011;47165;42.664;23.368;2022-08-19T01:06:31;4.60;;;3.97;;
61291;SDS011;47165;42.664;23.368;2022-08-19T01:08:59;6.35;;;4.95;;
61291;SDS011;47165;42.664;23.368;2022-08-19T01:11:25;5.70;;;4.72;;
61291;SDS011;47165;42.664;23.368;2022-08-19T01:13:53;6.55;;;4.53;;
61291;SDS011;47165;42.664;23.368;2022-08-19T01:16:19;10.10;;;4.90;;
61291;SDS011;47165;42.664;23.368;2022-08-19T01:18:47;5.97;;;4.53;;
61291;SDS011;47165;42.664;23.368;2022-08-19T01:21:33;5.40;;;4.03;;
61291;SDS011;47165;42.664;23.368;2022-08-19T01:24:04;5.97;;;4.25;;
61291;SDS011;47165;42.664;23.368;2022-08-19T01:26:30;5.95;;;4.35;;
61291;SDS011;47165;42.664;23.368;2022-08-19T01:28:57;7.90;;;4.80;;
61291;SDS011;47165;42.664;23.368;2022-08-19T01:31:24;4.93;;;4.40;;
61291;SDS011;47165;42.664;23.368;2022-08-19T01:33:55;6.15;;;4.70;;
61291;SDS011;47165;42.664;23.368;2022-08-19T01:36:24;5.78;;;4.47;;
61291;SDS011;47165;42.664;23.368;2022-08-19T01:38:52;5.03;;;4.43;;
61291;SDS011;47165;42.664;23.368;2022-08-19T01:41:18;7.05;;;4.57;;
61291;SDS011;47165;42.664;23.368;2022-08-19T01:43:44;5.97;;;4.90;;
61291;SDS011;47165;42.664;23.368;2022-08-19T01:46:10;8.25;;;5.38;;
61291;SDS011;47165;42.664;23.368;2022-08-19T01:48:40;6.80;;;4.88;;
61291;SDS011;47165;42.664;23.368;2022-08-19T01:51:07;6.15;;;4.65;;
61291;SDS011;47165;42.664;23.368;2022-08-19T01:53:34;6.35;;;4.80;;
61291;SDS011;47165;42.664;23.368;2022-08-19T01:56:00;10.80;;;4.80;;
61291;SDS011;47165;42.664;23.368;2022-08-19T01:58:49;7.13;;;5.38;;
61291;SDS011;47165;42.664;23.368;2022-08-19T02:01:15;7.95;;;5.00;;
61291;SDS011;47165;42.664;23.368;2022-08-19T02:03:41;6.65;;;4.40;;
61291;SDS011;47165;42.664;23.368;2022-08-19T02:06:06;6.63;;;4.10;;
61291;SDS011;47165;42.664;23.368;2022-08-19T02:08:33;7.70;;;5.57;;
61291;SDS011;47165;42.664;23.368;2022-08-19T02:11:01;6.57;;;4.97;;
61291;SDS011;47165;42.664;23.368;2022-08-19T02:13:27;8.98;;;5.35;;
61291;SDS011;47165;42.664;23.368;2022-08-19T02:15:54;5.82;;;4.25;;
61291;SDS011;47165;42.664;23.368;2022-08-19T02:18:20;10.05;;;5.45;;
61291;SDS011;47165;42.664;23.368;2022-08-19T02:20:45;10.90;;;4.97;;
61291;SDS011;47165;42.664;23.368;2022-08-19T02:23:13;8.93;;;5.10;;
61291;SDS011;47165;42.664;23.368;2022-08-19T02:25:39;7.90;;;5.03;;
61291;SDS011;47165;42.664;23.368;2022-08-19T02:28:06;7.50;;;5.00;;
61291;SDS011;47165;42.664;23.368;2022-08-19T02:30:32;5.15;;;4.28;;
61291;SDS011;47165;42.664;23.368;2022-08-19T02:32:57;5.72;;;4.53;;
61291;SDS011;47165;42.664;23.368;2022-08-19T02:35:23;6.15;;;4.28;;
61291;SDS011;47165;42.664;23.368;2022-08-19T02:37:49;5.53;;;3.97;;
61291;SDS011;47165;42.664;23.368;2022-08-19T02:40:33;6.20;;;4.43;;
61291;SDS011;47165;42.664;23.368;2022-08-19T02:43:00;6.53;;;4.25;;
61291;SDS011;47165;42.664;23.368;2022-08-19T02:45:36;5.53;;;4.32;;
61291;SDS011;47165;42.664;23.368;2022-08-19T02:48:03;5.85;;;4.20;;
61291;SDS011;47165;42.664;23.368;2022-08-19T02:50:29;6.10;;;4.63;;
61291;SDS011;47165;42.664;23.368;2022-08-19T02:52:55;5.88;;;4.28;;
61291;SDS011;47165;42.664;23.368;2022-08-19T02:55:21;5.25;;;4.25;;
61291;SDS011;47165;42.664;23.368;2022-08-19T02:57:47;7.22;;;4.80;;
61291;SDS011;47165;42.664;23.368;2022-08-19T03:00:13;6.68;;;4.50;;
61291;SDS011;47165;42.664;23.368;2022-08-19T03:02:39;6.00;;;4.22;;
61291;SDS011;47165;42.664;23.368;2022-08-19T03:05:05;6.68;;;4.75;;
61291;SDS011;47165;42.664;23.368;2022-08-19T03:07:31;6.68;;;4.70;;
61291;SDS011;47165;42.664;23.368;2022-08-19T03:09:57;7.93;;;5.07;;
61291;SDS011;47165;42.664;23.368;2022-08-19T03:12:22;6.53;;;4.55;;
61291;SDS011;47165;42.664;23.368;2022-08-19T03:14:48;6.43;;;4.88;;
61291;SDS011;47165;42.664;23.368;2022-08-19T03:17:13;6.70;;;4.55;;
61291;SDS011;47165;42.664;23.368;2022-08-19T03:19:39;8.20;;;4.60;;
61291;SDS011;47165;42.664;23.368;2022-08-19T03:22:04;4.75;;;3.92;;
61291;SDS011;47165;42.664;23.368;2022-08-19T03:24:30;8.23;;;4.60;;
61291;SDS011;47165;42.664;23.368;2022-08-19T03:26:56;5.78;;;4.72;;
61291;SDS011;47165;42.664;23.368;2022-08-19T03:29:24;7.20;;;4.68;;
61291;SDS011;47165;42.664;23.368;2022-08-19T03:31:51;6.20;;;5.28;;
61291;SDS011;47165;42.664;23.368;2022-08-19T03:34:21;12.80;;;5.05;;
61291;SDS011;47165;42.664;23.368;2022-08-19T03:36:51;5.97;;;4.80;;
61291;SDS011;47165;42.664;23.368;2022-08-19T03:39:18;10.07;;;4.75;;
61291;SDS011;47165;42.664;23.368;2022-08-19T03:41:44;5.65;;;3.95;;
61291;SDS011;47165;42.664;23.368;2022-08-19T03:44:12;5.95;;;4.10;;
61291;SDS011;47165;42.664;23.368;2022-08-19T03:46:38;6.65;;;4.88;;
61291;SDS011;47165;42.664;23.368;2022-08-19T03:49:04;7.13;;;4.57;;
61291;SDS011;47165;42.664;23.368;2022-08-19T03:51:35;5.82;;;4.13;;
61291;SDS011;47165;42.664;23.368;2022-08-19T03:54:04;7.50;;;4.55;;
61291;SDS011;47165;42.664;23.368;2022-08-19T03:56:33;10.60;;;5.82;;
61291;SDS011;47165;42.664;23.368;2022-08-19T03:59:00;7.93;;;5.53;;
61291;SDS011;47165;42.664;23.368;2022-08-19T04:01:27;10.10;;;6.85;;
61291;SDS011;47165;42.664;23.368;2022-08-19T04:03:53;9.38;;;5.78;;
61291;SDS011;47165;42.664;23.368;2022-08-19T04:06:22;9.13;;;5.53;;
61291;SDS011;47165;42.664;23.368;2022-08-19T04:08:50;8.50;;;4.53;;
61291;SDS011;47165;42.664;23.368;2022-08-19T04:11:20;7.22;;;5.47;;
61291;SDS011;47165;42.664;23.368;2022-08-19T04:13:48;7.35;;;5.13;;
61291;SDS011;47165;42.664;23.368;2022-08-19T04:16:16;6.60;;;5.63;;
61291;SDS011;47165;42.664;23.368;2022-08-19T04:18:42;8.32;;;5.85;;
61291;SDS011;47165;42.664;23.368;2022-08-19T04:21:08;9.82;;;5.70;;
61291;SDS011;47165;42.664;23.368;2022-08-19T04:23:41;7.32;;;5.85;;
61291;SDS011;47165;42.664;23.368;2022-08-19T04:26:07;7.65;;;5.57;;
61291;SDS011;47165;42.664;23.368;2022-08-19T04:28:39;8.00;;;5.45;;
61291;SDS011;47165;42.664;23.368;2022-08-19T04:31:04;8.63;;;5.85;;
61291;SDS011;47165;42.664;23.368;2022-08-19T04:33:30;9.30;;;6.55;;
61291;SDS011;47165;42.664;23.368;2022-08-19T04:35:55;7.88;;;5.35;;
61291;SDS011;47165;42.664;23.368;2022-08-19T04:38:23;7.53;;;5.38;;
61291;SDS011;47165;42.664;23.368;2022-08-19T04:40:49;12.48;;;6.72;;
61291;SDS011;47165;42.664;23.368;2022-08-19T04:43:35;7.90;;;5.63;;
61291;SDS011;47165;42.664;23.368;2022-08-19T04:46:06;8.90;;;5.93;;
61291;SDS011;47165;42.664;23.368;2022-08-19T04:48:36;9.40;;;6.78;;
61291;SDS011;47165;42.664;23.368;2022-08-19T04:51:05;10.27;;;6.97;;
61291;SDS011;47165;42.664;23.368;2022-08-19T04:53:33;9.80;;;5.25;;
61291;SDS011;47165;42.664;23.368;2022-08-19T04:56:03;9.25;;;6.45;;
61291;SDS011;47165;42.664;23.368;2022-08-19T04:58:31;8.77;;;4.88;;
61291;SDS011;47165;42.664;23.368;2022-08-19T05:00:57;7.35;;;5.03;;
61291;SDS011;47165;42.664;23.368;2022-08-19T05:03:24;6.45;;;5.00;;
61291;SDS011;47165;42.664;23.368;2022-08-19T05:05:51;7.93;;;5.57;;
61291;SDS011;47165;42.664;23.368;2022-08-19T05:08:17;9.10;;;5.45;;
61291;SDS011;47165;42.664;23.368;2022-08-19T05:10:48;9.88;;;5.50;;
61291;SDS011;47165;42.664;23.368;2022-08-19T05:13:16;7.53;;;5.15;;
61291;SDS011;47165;42.664;23.368;2022-08-19T05:15:42;8.43;;;4.75;;
61291;SDS011;47165;42.664;23.368;2022-08-19T05:18:08;6.65;;;5.20;;
61291;SDS011;47165;42.664;23.368;2022-08-19T05:20:53;7.28;;;5.30;;
61291;SDS011;47165;42.664;23.368;2022-08-19T05:23:37;10.77;;;4.72;;
61291;SDS011;47165;42.664;23.368;2022-08-19T05:26:03;6.85;;;5.47;;
61291;SDS011;47165;42.664;23.368;2022-08-19T05:28:29;8.77;;;5.10;;
61291;SDS011;47165;42.664;23.368;2022-08-19T05:30:55;7.60;;;5.68;;
61291;SDS011;47165;42.664;23.368;2022-08-19T05:33:21;9.23;;;5.72;;
61291;SDS011;47165;42.664;23.368;2022-08-19T05:35:48;6.88;;;5.47;;
61291;SDS011;47165;42.664;23.368;2022-08-19T05:38:14;10.68;;;5.93;;
61291;SDS011;47165;42.664;23.368;2022-08-19T05:40:41;7.97;;;5.65;;
61291;SDS011;47165;42.664;23.368;2022-08-19T05:43:07;9.75;;;5.05;;
61291;SDS011;47165;42.664;23.368;2022-08-19T05:45:37;7.53;;;6.30;;
61291;SDS011;47165;42.664;23.368;2022-08-19T05:48:04;8.43;;;5.43;;
61291;SDS011;47165;42.664;23.368;2022-08-19T05:50:30;6.88;;;4.82;;
61291;SDS011;47165;42.664;23.368;2022-08-19T05:52:56;10.50;;;5.82;;
61291;SDS011;47165;42.664;23.368;2022-08-19T05:55:22;7.53;;;5.20;;
61291;SDS011;47165;42.664;23.368;2022-08-19T05:57:48;7.05;;;5.72;;
61291;SDS011;47165;42.664;23.368;2022-08-19T06:00:14;9.15;;;6.32;;
61291;SDS011;47165;42.664;23.368;2022-08-19T06:02:40;13.23;;;6.53;;
61291;SDS011;47165;42.664;23.368;2022-08-19T06:05:06;9.50;;;5.65;;
61291;SDS011;47165;42.664;23.368;2022-08-19T06:07:37;9.68;;;5.72;;
61291;SDS011;47165;42.664;23.368;2022-08-19T06:10:05;9.65;;;6.10;;
61291;SDS011;47165;42.664;23.368;2022-08-19T06:12:33;8.85;;;6.18;;
61291;SDS011;47165;42.664;23.368;2022-08-19T06:15:05;6.22;;;5.40;;
61291;SDS011;47165;42.664;23.368;2022-08-19T06:17:33;7.40;;;5.68;;
61291;SDS011;47165;42.664;23.368;2022-08-19T06:20:00;7.78;;;5.53;;
61291;SDS011;47165;42.664;23.368;2022-08-19T06:22:26;10.00;;;6.20;;
61291;SDS011;47165;42.664;23.368;2022-08-19T06:24:53;9.63;;;5.80;;
61291;SDS011;47165;42.664;23.368;2022-08-19T06:27:19;8.55;;;6.03;;
61291;SDS011;47165;42.664;23.368;2022-08-19T06:29:45;7.78;;;6.32;;
61291;SDS011;47165;42.664;23.368;2022-08-19T06:32:12;11.90;;;6.90;;
61291;SDS011;47165;42.664;23.368;2022-08-19T06:34:41;8.50;;;5.85;;
61291;SDS011;47165;42.664;23.368;2022-08-19T06:37:07;10.30;;;6.35;;
61291;SDS011;47165;42.664;23.368;2022-08-19T06:39:34;8.15;;;6.05;;
61291;SDS011;47165;42.664;23.368;2022-08-19T06:42:03;9.18;;;6.40;;
61291;SDS011;47165;42.664;23.368;2022-08-19T06:44:33;9.43;;;6.18;;
61291;SDS011;47165;42.664;23.368;2022-08-19T06:47:05;10.10;;;6.72;;
61291;SDS011;47165;42.664;23.368;2022-08-19T06:49:32;8.70;;;5.57;;
61291;SDS011;47165;42.664;23.368;2022-08-19T06:51:58;11.07;;;6.07;;
61291;SDS011;47165;42.664;23.368;2022-08-19T06:54:25;7.03;;;5.53;;
61291;SDS011;47165;42.664;23.368;2022-08-19T06:56:52;11.95;;;6.57;;
61291;SDS011;47165;42.664;23.368;2022-08-19T06:59:18;14.32;;;6.00;;
61291;SDS011;47165;42.664;23.368;2022-08-19T07:01:47;7.90;;;5.40;;
61291;SDS011;47165;42.664;23.368;2022-08-19T07:04:17;10.50;;;5.50;;
61291;SDS011;47165;42.664;23.368;2022-08-19T07:06:45;7.85;;;5.70;;
61291;SDS011;47165;42.664;23.368;2022-08-19T07:09:12;15.52;;;6.65;;
61291;SDS011;47165;42.664;23.368;2022-08-19T07:11:43;12.80;;;6.40;;
61291;SDS011;47165;42.664;23.368;2022-08-19T07:14:10;15.45;;;6.28;;
61291;SDS011;47165;42.664;23.368;2022-08-19T07:16:35;9.65;;;5.82;;
61291;SDS011;47165;42.664;23.368;2022-08-19T07:19:01;10.82;;;5.95;;
61291;SDS011;47165;42.664;23.368;2022-08-19T07:21:28;10.10;;;6.65;;
61291;SDS011;47165;42.664;23.368;2022-08-19T07:23:54;8.20;;;6.10;;
61291;SDS011;47165;42.664;23.368;2022-08-19T07:26:22;9.98;;;6.28;;
61291;SDS011;47165;42.664;23.368;2022-08-19T07:28:50;13.35;;;7.30;;
61291;SDS011;47165;42.664;23.368;2022-08-19T07:31:17;7.57;;;5.88;;
61291;SDS011;47165;42.664;23.368;2022-08-19T07:33:45;7.93;;;5.88;;
61291;SDS011;47165;42.664;23.368;2022-08-19T07:36:13;9.20;;;6.13;;
61291;SDS011;47165;42.664;23.368;2022-08-19T07:38:43;7.40;;;5.47;;
61291;SDS011;47165;42.664;23.368;2022-08-19T07:41:14;9.98;;;6.10;;
61291;SDS011;47165;42.664;23.368;2022-08-19T07:43:41;9.77;;;5.50;;
61291;SDS011;47165;42.664;23.368;2022-08-19T07:46:08;10.63;;;5.78;;
61291;SDS011;47165;42.664;23.368;2022-08-19T07:48:34;13.10;;;5.40;;
61291;SDS011;47165;42.664;23.368;2022-08-19T07:51:02;10.13;;;5.60;;
61291;SDS011;47165;42.664;23.368;2022-08-19T07:53:31;8.52;;;5.18;;
61291;SDS011;47165;42.664;23.368;2022-08-19T07:56:00;6.03;;;4.93;;
61291;SDS011;47165;42.664;23.368;2022-08-19T07:58:27;8.43;;;6.05;;
61291;SDS011;47165;42.664;23.368;2022-08-19T08:00:53;15.65;;;5.85;;
61291;SDS011;47165;42.664;23.368;2022-08-19T08:03:19;8.20;;;5.20;;
61291;SDS011;47165;42.664;23.368;2022-08-19T08:06:06;13.27;;;5.53;;
61291;SDS011;47165;42.664;23.368;2022-08-19T08:08:50;8.63;;;5.30;;
61291;SDS011;47165;42.664;23.368;2022-08-19T08:11:34;7.10;;;5.00;;
61291;SDS011;47165;42.664;23.368;2022-08-19T08:14:00;9.20;;;5.20;;
61291;SDS011;47165;42.664;23.368;2022-08-19T08:16:26;7.38;;;5.20;;
61291;SDS011;47165;42.664;23.368;2022-08-19T08:18:54;8.93;;;5.70;;
61291;SDS011;47165;42.664;23.368;2022-08-19T08:21:20;9.73;;;5.57;;
61291;SDS011;47165;42.664;23.368;2022-08-19T08:23:45;8.50;;;6.57;;
61291;SDS011;47165;42.664;23.368;2022-08-19T08:26:11;9.57;;;5.03;;
61291;SDS011;47165;42.664;23.368;2022-08-19T08:28:38;6.13;;;4.80;;
61291;SDS011;47165;42.664;23.368;2022-08-19T08:31:03;6.30;;;4.88;;
61291;SDS011;47165;42.664;23.368;2022-08-19T08:33:29;8.38;;;5.25;;
61291;SDS011;47165;42.664;23.368;2022-08-19T08:35:55;10.50;;;5.20;;
61291;SDS011;47165;42.664;23.368;2022-08-19T08:38:21;9.57;;;5.50;;
61291;SDS011;47165;42.664;23.368;2022-08-19T08:40:48;7.75;;;5.50;;
61291;SDS011;47165;42.664;23.368;2022-08-19T08:48:38;8.38;;;4.90;;
61291;SDS011;47165;42.664;23.368;2022-08-19T08:51:12;6.85;;;5.15;;
61291;SDS011;47165;42.664;23.368;2022-08-19T08:53:43;6.90;;;4.88;;
61291;SDS011;47165;42.664;23.368;2022-08-19T08:56:11;6.55;;;4.97;;
61291;SDS011;47165;42.664;23.368;2022-08-19T09:01:12;6.93;;;4.90;;
61291;SDS011;47165;42.664;23.368;2022-08-19T09:03:38;5.75;;;4.35;;
61291;SDS011;47165;42.664;23.368;2022-08-19T09:06:10;6.10;;;4.78;;
61291;SDS011;47165;42.664;23.368;2022-08-19T09:08:45;5.88;;;4.30;;
61291;SDS011;47165;42.664;23.368;2022-08-19T09:11:21;5.75;;;4.28;;
61291;SDS011;47165;42.664;23.368;2022-08-19T09:14:10;9.88;;;4.53;;
61291;SDS011;47165;42.664;23.368;2022-08-19T09:16:43;6.63;;;4.47;;
61291;SDS011;47165;42.664;23.368;2022-08-19T09:19:09;5.80;;;4.22;;
61291;SDS011;47165;42.664;23.368;2022-08-19T09:21:36;6.53;;;4.85;;
61291;SDS011;47165;42.664;23.368;2022-08-19T09:24:03;7.20;;;4.80;;
61291;SDS011;47165;42.664;23.368;2022-08-19T09:26:30;7.32;;;3.90;;
61291;SDS011;47165;42.664;23.368;2022-08-19T09:28:59;4.75;;;3.63;;
61291;SDS011;47165;42.664;23.368;2022-08-19T09:31:26;8.68;;;3.92;;
61291;SDS011;47165;42.664;23.368;2022-08-19T09:33:54;6.10;;;3.00;;
61291;SDS011;47165;42.664;23.368;2022-08-19T09:36:23;4.57;;;3.60;;
61291;SDS011;47165;42.664;23.368;2022-08-19T09:38:50;4.10;;;2.90;;
61291;SDS011;47165;42.664;23.368;2022-08-19T09:41:18;6.35;;;3.30;;
61291;SDS011;47165;42.664;23.368;2022-08-19T09:43:46;3.65;;;3.05;;
61291;SDS011;47165;42.664;23.368;2022-08-19T09:46:12;5.82;;;3.53;;
61291;SDS011;47165;42.664;23.368;2022-08-19T09:48:38;5.20;;;3.22;;
61291;SDS011;47165;42.664;23.368;2022-08-19T09:51:07;4.45;;;3.10;;
61291;SDS011;47165;42.664;23.368;2022-08-19T09:53:35;5.13;;;3.47;;
61291;SDS011;47165;42.664;23.368;2022-08-19T09:56:01;5.00;;;3.15;;
61291;SDS011;47165;42.664;23.368;2022-08-19T09:58:27;4.80;;;3.20;;
61291;SDS011;47165;42.664;23.368;2022-08-19T10:00:54;2.72;;;2.40;;
61291;SDS011;47165;42.664;23.368;2022-08-19T10:03:20;4.68;;;3.10;;
61291;SDS011;47165;42.664;23.368;2022-08-19T10:05:46;4.65;;;3.38;;
61291;SDS011;47165;42.664;23.368;2022-08-19T10:08:15;3.58;;;2.83;;
61291;SDS011;47165;42.664;23.368;2022-08-19T10:10:43;4.75;;;2.63;;
61291;SDS011;47165;42.664;23.368;2022-08-19T10:13:09;3.90;;;2.95;;
61291;SDS011;47165;42.664;23.368;2022-08-19T10:15:35;5.65;;;3.40;;
61291;SDS011;47165;42.664;23.368;2022-08-19T10:18:00;4.50;;;3.30;;
61291;SDS011;47165;42.664;23.368;2022-08-19T10:20:26;3.85;;;3.08;;
61291;SDS011;47165;42.664;23.368;2022-08-19T10:22:51;7.40;;;3.67;;
61291;SDS011;47165;42.664;23.368;2022-08-19T10:25:17;6.28;;;3.50;;
61291;SDS011;47165;42.664;23.368;2022-08-19T10:27:43;4.75;;;3.75;;
61291;SDS011;47165;42.664;23.368;2022-08-19T10:30:08;5.10;;;3.40;;
61291;SDS011;47165;42.664;23.368;2022-08-19T10:32:34;4.68;;;2.95;;
61291;SDS011;47165;42.664;23.368;2022-08-19T10:35:00;3.80;;;2.90;;
61291;SDS011;47165;42.664;23.368;2022-08-19T10:37:26;6.70;;;3.22;;
61291;SDS011;47165;42.664;23.368;2022-08-19T10:39:52;4.30;;;3.42;;
61291;SDS011;47165;42.664;23.368;2022-08-19T10:42:18;5.35;;;3.45;;
61291;SDS011;47165;42.664;23.368;2022-08-19T10:44:44;4.72;;;3.40;;
61291;SDS011;47165;42.664;23.368;2022-08-19T10:47:11;4.03;;;3.33;;
61291;SDS011;47165;42.664;23.368;2022-08-19T10:49:37;5.97;;;3.72;;
61291;SDS011;47165;42.664;23.368;2022-08-19T10:52:22;4.43;;;3.47;;
61291;SDS011;47165;42.664;23.368;2022-08-19T10:55:00;5.38;;;4.22;;
61291;SDS011;47165;42.664;23.368;2022-08-19T10:57:45;4.55;;;3.50;;
61291;SDS011;47165;42.664;23.368;2022-08-19T11:00:10;6.07;;;3.47;;
61291;SDS011;47165;42.664;23.368;2022-08-19T11:02:36;5.60;;;3.85;;
61291;SDS011;47165;42.664;23.368;2022-08-19T11:05:02;5.63;;;3.40;;
61291;SDS011;47165;42.664;23.368;2022-08-19T11:07:28;4.28;;;3.28;;
61291;SDS011;47165;42.664;23.368;2022-08-19T11:09:53;6.15;;;3.72;;
61291;SDS011;47165;42.664;23.368;2022-08-19T11:12:18;6.45;;;3.90;;
61291;SDS011;47165;42.664;23.368;2022-08-19T11:14:44;4.25;;;3.47;;
61291;SDS011;47165;42.664;23.368;2022-08-19T11:17:10;6.13;;;3.33;;
61291;SDS011;47165;42.664;23.368;2022-08-19T11:19:38;4.25;;;3.28;;
61291;SDS011;47165;42.664;23.368;2022-08-19T11:22:04;5.18;;;3.78;;
61291;SDS011;47165;42.664;23.368;2022-08-19T11:24:33;3.92;;;3.25;;
61291;SDS011;47165;42.664;23.368;2022-08-19T11:27:04;4.20;;;3.58;;
61291;SDS011;47165;42.664;23.368;2022-08-19T11:29:32;6.27;;;3.97;;
61291;SDS011;47165;42.664;23.368;2022-08-19T11:31:59;7.22;;;4.15;;
61291;SDS011;47165;42.664;23.368;2022-08-19T11:34:28;7.32;;;3.55;;
61291;SDS011;47165;42.664;23.368;2022-08-19T11:36:54;5.28;;;3.25;;
61291;SDS011;47165;42.664;23.368;2022-08-19T11:39:23;5.85;;;3.20;;
61291;SDS011;47165;42.664;23.368;2022-08-19T11:41:50;4.45;;;3.63;;
61291;SDS011;47165;42.664;23.368;2022-08-19T11:44:19;4.82;;;3.17;;
61291;SDS011;47165;42.664;23.368;2022-08-19T11:46:44;4.45;;;3.33;;
61291;SDS011;47165;42.664;23.368;2022-08-19T11:49:12;4.45;;;3.00;;
61291;SDS011;47165;42.664;23.368;2022-08-19T11:51:38;5.75;;;4.22;;
61291;SDS011;47165;42.664;23.368;2022-08-19T11:54:06;4.63;;;3.58;;
61291;SDS011;47165;42.664;23.368;2022-08-19T11:56:33;4.60;;;3.47;;
61291;SDS011;47165;42.664;23.368;2022-08-19T11:59:00;3.65;;;2.90;;
61291;SDS011;47165;42.664;23.368;2022-08-19T12:01:26;6.25;;;3.53;;
61291;SDS011;47165;42.664;23.368;2022-08-19T12:03:52;4.25;;;3.28;;
61291;SDS011;47165;42.664;23.368;2022-08-19T12:06:21;5.80;;;3.50;;
61291;SDS011;47165;42.664;23.368;2022-08-19T12:08:50;5.90;;;3.33;;
61291;SDS011;47165;42.664;23.368;2022-08-19T12:11:16;3.80;;;3.05;;
61291;SDS011;47165;42.664;23.368;2022-08-19T12:13:42;6.32;;;3.60;;
61291;SDS011;47165;42.664;23.368;2022-08-19T12:16:12;4.13;;;3.10;;
61291;SDS011;47165;42.664;23.368;2022-08-19T12:18:42;5.22;;;3.33;;
61291;SDS011;47165;42.664;23.368;2022-08-19T12:21:15;6.32;;;3.38;;
61291;SDS011;47165;42.664;23.368;2022-08-19T12:23:41;4.72;;;3.50;;
61291;SDS011;47165;42.664;23.368;2022-08-19T12:26:09;5.65;;;2.88;;
61291;SDS011;47165;42.664;23.368;2022-08-19T12:28:35;4.00;;;3.08;;
61291;SDS011;47165;42.664;23.368;2022-08-19T12:31:00;4.72;;;3.25;;
61291;SDS011;47165;42.664;23.368;2022-08-19T12:33:26;8.03;;;5.30;;
61291;SDS011;47165;42.664;23.368;2022-08-19T12:35:53;3.58;;;3.05;;
61291;SDS011;47165;42.664;23.368;2022-08-19T12:38:19;5.53;;;3.53;;
61291;SDS011;47165;42.664;23.368;2022-08-19T12:40:45;7.68;;;3.97;;
61291;SDS011;47165;42.664;23.368;2022-08-19T12:43:12;3.75;;;3.40;;
61291;SDS011;47165;42.664;23.368;2022-08-19T12:45:38;5.05;;;3.65;;
61291;SDS011;47165;42.664;23.368;2022-08-19T12:48:04;3.80;;;3.08;;
61291;SDS011;47165;42.664;23.368;2022-08-19T12:50:30;3.20;;;2.90;;
61291;SDS011;47165;42.664;23.368;2022-08-19T12:52:56;4.38;;;2.97;;
61291;SDS011;47165;42.664;23.368;2022-08-19T12:55:22;5.38;;;2.90;;
61291;SDS011;47165;42.664;23.368;2022-08-19T12:57:47;3.88;;;2.80;;
61291;SDS011;47165;42.664;23.368;2022-08-19T13:00:17;6.20;;;4.40;;
61291;SDS011;47165;42.664;23.368;2022-08-19T13:05:16;5.50;;;3.08;;
61291;SDS011;47165;42.664;23.368;2022-08-19T13:07:46;4.72;;;3.03;;
61291;SDS011;47165;42.664;23.368;2022-08-19T13:10:12;6.18;;;3.10;;
61291;SDS011;47165;42.664;23.368;2022-08-19T13:12:44;4.28;;;3.20;;
61291;SDS011;47165;42.664;23.368;2022-08-19T13:15:12;3.85;;;2.92;;
61291;SDS011;47165;42.664;23.368;2022-08-19T13:17:39;5.63;;;2.90;;
61291;SDS011;47165;42.664;23.368;2022-08-19T13:20:07;4.80;;;2.97;;
61291;SDS011;47165;42.664;23.368;2022-08-19T13:22:33;4.97;;;3.08;;
61291;SDS011;47165;42.664;23.368;2022-08-19T13:25:00;4.00;;;2.97;;
61291;SDS011;47165;42.664;23.368;2022-08-19T13:27:26;3.42;;;3.08;;
61291;SDS011;47165;42.664;23.368;2022-08-19T13:29:51;3.97;;;2.50;;
61291;SDS011;47165;42.664;23.368;2022-08-19T13:32:35;6.60;;;2.83;;
61291;SDS011;47165;42.664;23.368;2022-08-19T13:35:19;3.35;;;2.95;;
61291;SDS011;47165;42.664;23.368;2022-08-19T13:37:44;5.25;;;2.90;;
61291;SDS011;47165;42.664;23.368;2022-08-19T13:40:14;3.53;;;3.05;;
61291;SDS011;47165;42.664;23.368;2022-08-19T13:42:47;6.97;;;5.45;;
61291;SDS011;47165;42.664;23.368;2022-08-19T13:45:15;5.80;;;3.47;;
61291;SDS011;47165;42.664;23.368;2022-08-19T13:47:44;5.03;;;3.22;;
61291;SDS011;47165;42.664;23.368;2022-08-19T13:50:16;4.97;;;3.35;;
61291;SDS011;47165;42.664;23.368;2022-08-19T13:52:44;3.92;;;3.10;;
61291;SDS011;47165;42.664;23.368;2022-08-19T13:55:10;4.65;;;3.25;;
61291;SDS011;47165;42.664;23.368;2022-08-19T13:57:37;5.72;;;3.78;;
61291;SDS011;47165;42.664;23.368;2022-08-19T14:00:07;8.55;;;3.40;;
61291;SDS011;47165;42.664;23.368;2022-08-19T14:02:36;6.05;;;4.22;;
61291;SDS011;47165;42.664;23.368;2022-08-19T14:05:03;6.35;;;2.90;;
61291;SDS011;47165;42.664;23.368;2022-08-19T14:07:29;10.05;;;7.30;;
61291;SDS011;47165;42.664;23.368;2022-08-19T14:09:55;9.38;;;6.88;;
61291;SDS011;47165;42.664;23.368;2022-08-19T14:12:21;4.70;;;3.92;;
61291;SDS011;47165;42.664;23.368;2022-08-19T14:14:46;6.28;;;3.65;;
61291;SDS011;47165;42.664;23.368;2022-08-19T14:17:12;7.43;;;3.28;;
61291;SDS011;47165;42.664;23.368;2022-08-19T14:19:37;11.70;;;6.10;;
61291;SDS011;47165;42.664;23.368;2022-08-19T14:22:03;5.45;;;4.35;;
61291;SDS011;47165;42.664;23.368;2022-08-19T14:24:29;5.78;;;4.20;;
61291;SDS011;47165;42.664;23.368;2022-08-19T14:26:54;8.73;;;3.63;;
61291;SDS011;47165;42.664;23.368;2022-08-19T14:29:20;3.40;;;3.05;;
61291;SDS011;47165;42.664;23.368;2022-08-19T14:31:45;18.50;;;5.45;;
61291;SDS011;47165;42.664;23.368;2022-08-19T14:34:11;8.57;;;3.75;;
61291;SDS011;47165;42.664;23.368;2022-08-19T14:36:37;5.28;;;3.15;;
61291;SDS011;47165;42.664;23.368;2022-08-19T14:39:03;4.97;;;3.47;;
61291;SDS011;47165;42.664;23.368;2022-08-19T14:41:29;3.30;;;2.95;;
61291;SDS011;47165;42.664;23.368;2022-08-19T14:43:55;5.65;;;4.05;;
61291;SDS011;47165;42.664;23.368;2022-08-19T14:46:23;6.55;;;3.88;;
61291;SDS011;47165;42.664;23.368;2022-08-19T14:48:51;4.70;;;3.88;;